Time;durP1;ratioP1;P1;durP2;ratioP2;P2;SDS_P1;SDS_P2;PMS_P1;PMS_P2;Temp;Humidity;BMP_temperature;BMP_pressure;BME280_temperature;BME280_humidity;BME280_pressure;Samples;Min_cycle;Max_cycle;Signal;HPM_P1;HPM_P2
2023/05/10 00:00:27;;;;;;;8.52;5.35;;;358.60;2329.60;;;;;;5021861;28;20029;-81
2023/05/10 00:02:53;;;;;;;9.00;5.60;;;358.50;2329.60;;;;;;5022857;28;20025;-81
2023/05/10 00:05:19;;;;;;;7.28;4.97;;;358.50;2329.60;;;;;;5022427;28;20071;-81
2023/05/10 00:07:45;;;;;;;7.95;5.63;;;358.50;2329.60;;;;;;5022248;28;20069;-81
2023/05/10 00:10:11;;;;;;;6.28;5.00;;;358.50;2329.60;;;;;;5020667;28;20034;-81
2023/05/10 00:12:37;;;;;;;7.45;5.18;;;358.50;2329.60;;;;;;5039669;28;20029;-81
2023/05/10 00:15:03;;;;;;;7.10;5.15;;;358.50;2329.60;;;;;;5038115;28;20464;-81
2023/05/10 00:17:29;;;;;;;6.82;4.18;;;358.50;2329.60;;;;;;5023105;28;20037;-81
2023/05/10 00:19:55;;;;;;;5.63;4.28;;;358.50;2329.60;;;;;;5023143;28;20022;-81
2023/05/10 00:22:21;;;;;;;7.13;4.53;;;358.50;2329.60;;;;;;5040400;28;20032;-81
2023/05/10 00:24:47;;;;;;;8.07;5.30;;;358.50;2329.60;;;;;;5040338;28;20022;-81
2023/05/10 00:27:12;;;;;;;9.00;5.55;;;358.50;2329.60;;;;;;5024624;28;20093;-81
2023/05/10 00:29:38;;;;;;;6.50;5.10;;;358.50;2329.60;;;;;;5025406;28;20461;-81
2023/05/10 00:32:04;;;;;;;6.78;4.55;;;358.50;2329.60;;;;;;5025593;28;20079;-81
2023/05/10 00:34:30;;;;;;;8.45;4.95;;;358.40;2329.60;;;;;;5025551;28;20069;-81
2023/05/10 00:36:56;;;;;;;6.93;4.55;;;358.50;2329.60;;;;;;5025580;28;20017;-82
2023/05/10 00:39:22;;;;;;;6.78;5.00;;;358.70;2329.60;;;;;;5044172;28;20068;-83
2023/05/10 00:41:47;;;;;;;7.68;5.63;;;358.70;2329.60;;;;;;5031813;28;20377;-83
2023/05/10 00:44:13;;;;;;;8.15;5.35;;;358.60;2329.60;;;;;;5047925;28;20037;-84
2023/05/10 00:46:39;;;;;;;7.38;5.00;;;358.40;2329.60;;;;;;5046090;28;20099;-81
2023/05/10 00:49:06;;;;;;;6.78;5.07;;;333.60;2329.60;;;;;;5038552;28;20033;-82
2023/05/10 00:51:32;;;;;;;7.78;5.72;;;333.40;2329.60;;;;;;5022821;28;20029;-81
2023/05/10 00:53:58;;;;;;;6.78;5.13;;;333.40;2329.60;;;;;;5021218;28;20030;-83
2023/05/10 00:56:26;;;;;;;9.70;5.70;;;333.20;2329.60;;;;;;5033205;28;20034;-81
2023/05/10 00:58:52;;;;;;;8.15;5.50;;;333.40;2329.60;;;;;;5017526;28;20030;-82
2023/05/10 01:01:19;;;;;;;8.13;5.53;;;333.30;2329.60;;;;;;5026960;28;20120;-82
2023/05/10 01:03:46;;;;;;;6.78;4.75;;;333.40;2329.60;;;;;;5020382;28;20030;-82
2023/05/10 01:06:13;;;;;;;10.07;6.28;;;333.60;2329.60;;;;;;5020384;28;20080;-81
2023/05/10 01:08:39;;;;;;;8.38;5.88;;;333.50;2329.60;;;;;;5021043;28;20439;-81
2023/05/10 01:11:05;;;;;;;7.80;5.32;;;333.40;2329.60;;;;;;5019809;28;20053;-81
2023/05/10 01:13:34;;;;;;;7.78;5.40;;;333.50;2329.60;;;;;;5021456;28;20061;-83
2023/05/10 01:16:02;;;;;;;8.02;5.43;;;333.60;2329.60;;;;;;5020429;28;20025;-82
2023/05/10 01:18:34;;;;;;;7.07;5.00;;;333.60;2329.60;;;;;;5021123;28;20036;-82
2023/05/10 01:21:06;;;;;;;7.38;5.28;;;333.60;2329.60;;;;;;5020556;28;20034;-82
2023/05/10 01:23:50;;;;;;;9.75;5.43;;;358.40;2329.60;;;;;;5022371;28;20028;-82
2023/05/10 01:26:25;;;;;;;9.35;5.47;;;333.70;2329.60;;;;;;5020745;28;20381;-81
2023/05/10 01:29:00;;;;;;;8.13;5.22;;;358.40;2329.60;;;;;;5019990;28;20060;-81
2023/05/10 01:31:51;;;;;;;10.20;5.55;;;333.60;2329.60;;;;;;5020463;28;20017;-81
2023/05/10 01:34:25;;;;;;;10.38;5.57;;;358.40;2329.60;;;;;;5020613;28;20030;-82
2023/05/10 01:37:24;;;;;;;7.50;4.95;;;358.40;2329.60;;;;;;5036491;28;20029;-81
2023/05/10 01:39:59;;;;;;;6.97;4.88;;;358.50;2329.60;;;;;;5029380;28;20104;-83
2023/05/10 01:42:33;;;;;;;8.73;5.05;;;358.40;2329.60;;;;;;5021330;28;20116;-81
2023/05/10 01:45:51;;;;;;;9.93;7.00;;;358.40;2329.60;;;;;;5020588;28;20025;-82
2023/05/10 01:48:19;;;;;;;6.97;4.97;;;358.90;2329.60;;;;;;4938676;29;20035;-83
2023/05/10 01:50:46;;;;;;;7.10;4.70;;;333.60;2329.60;;;;;;4941162;29;20106;-82
2023/05/10 01:53:17;;;;;;;12.68;5.13;;;333.60;2329.60;;;;;;4958348;29;20031;-82
2023/05/10 01:55:47;;;;;;;11.13;7.78;;;333.70;2329.60;;;;;;4958459;29;20027;-82
2023/05/10 01:58:23;;;;;;;7.15;5.53;;;358.40;2329.60;;;;;;4958574;29;20043;-80
2023/05/10 02:00:52;;;;;;;7.40;5.10;;;333.60;2329.60;;;;;;4957932;29;20023;-82
2023/05/10 02:03:20;;;;;;;7.55;6.07;;;333.70;2329.60;;;;;;4959140;29;20027;-82
2023/05/10 02:05:49;;;;;;;7.57;6.15;;;333.70;2329.60;;;;;;4938924;29;20028;-81
2023/05/10 02:08:17;;;;;;;7.97;5.10;;;358.40;2329.60;;;;;;4938433;29;20056;-82
2023/05/10 02:10:44;;;;;;;6.60;5.30;;;333.70;2329.60;;;;;;4956857;29;20035;-81
2023/05/10 02:13:12;;;;;;;5.93;4.25;;;333.70;2329.60;;;;;;4958107;29;20045;-82
2023/05/10 02:15:40;;;;;;;6.32;4.28;;;358.40;2329.60;;;;;;4958075;29;20031;-82
2023/05/10 02:18:07;;;;;;;5.15;3.92;;;358.40;2329.60;;;;;;4958296;29;20043;-82
2023/05/10 02:20:34;;;;;;;5.93;4.43;;;358.50;2329.60;;;;;;4958407;29;20442;-81
2023/05/10 02:23:03;;;;;;;5.63;4.13;;;358.50;2329.60;;;;;;4951482;28;20096;-82
2023/05/10 02:25:30;;;;;;;7.22;5.38;;;358.50;2329.60;;;;;;5014503;28;20025;-82
2023/05/10 02:27:57;;;;;;;6.32;4.80;;;358.50;2329.60;;;;;;5037385;28;20083;-82
2023/05/10 02:30:24;;;;;;;6.85;5.13;;;358.40;2329.60;;;;;;5037094;28;20037;-81
2023/05/10 02:32:52;;;;;;;6.70;4.57;;;333.70;2329.60;;;;;;5020580;28;20090;-82
2023/05/10 02:35:18;;;;;;;6.78;4.72;;;333.40;2329.60;;;;;;5016864;28;20029;-81
2023/05/10 02:37:46;;;;;;;6.90;4.63;;;333.40;2329.60;;;;;;5017435;28;20053;-82
2023/05/10 02:40:14;;;;;;;5.97;4.18;;;333.40;2329.60;;;;;;5024719;28;20061;-82
2023/05/10 02:42:43;;;;;;;5.28;4.07;;;333.20;2329.60;;;;;;5020621;28;20029;-82
2023/05/10 02:45:15;;;;;;;5.63;4.10;;;333.50;2329.60;;;;;;5019838;28;20033;-81
2023/05/10 02:47:41;;;;;;;5.63;4.15;;;333.50;2329.60;;;;;;5017555;28;20144;-82
2023/05/10 02:50:07;;;;;;;5.50;4.05;;;333.30;2329.60;;;;;;5017039;28;20066;-81
2023/05/10 02:52:46;;;;;;;6.03;4.13;;;333.70;2329.60;;;;;;5036201;28;20097;-81
2023/05/10 02:55:15;;;;;;;6.20;4.30;;;333.20;2329.60;;;;;;5039192;28;20029;-83
2023/05/10 02:57:52;;;;;;;6.85;4.55;;;333.10;2329.60;;;;;;5039182;28;20026;-82
2023/05/10 03:00:18;;;;;;;6.53;4.18;;;333.30;2329.60;;;;;;5040622;28;20075;-81
2023/05/10 03:02:43;;;;;;;6.63;4.57;;;333.20;2329.60;;;;;;5027901;28;20068;-82
2023/05/10 03:05:09;;;;;;;6.78;4.65;;;333.00;2329.60;;;;;;5009024;28;20030;-83
2023/05/10 03:07:35;;;;;;;7.35;4.88;;;333.20;2329.60;;;;;;5024447;28;20424;-81
2023/05/10 03:10:02;;;;;;;6.63;4.82;;;332.90;2329.60;;;;;;5023182;28;20037;-82
2023/05/10 03:12:54;;;;;;;6.00;4.38;;;333.70;2329.60;;;;;;5016363;28;20026;-82
2023/05/10 03:15:35;;;;;;;6.55;4.55;;;333.40;2329.60;;;;;;4957120;29;20031;-82
2023/05/10 03:18:09;;;;;;;8.75;5.28;;;333.40;2329.60;;;;;;4957265;28;20139;-83
2023/05/10 03:20:48;;;;;;;10.55;5.90;;;333.40;2329.60;;;;;;4956943;29;20418;-83
2023/05/10 03:23:21;;;;;;;8.45;5.25;;;333.40;2329.60;;;;;;4957747;29;20027;-81
2023/05/10 03:25:50;;;;;;;10.50;5.05;;;333.50;2329.60;;;;;;4958728;29;20039;-81
2023/05/10 03:28:17;;;;;;;7.55;4.90;;;333.40;2329.60;;;;;;4958649;29;20160;-81
2023/05/10 03:30:44;;;;;;;8.85;4.90;;;333.40;2329.60;;;;;;4959369;29;20031;-83
2023/05/10 03:33:10;;;;;;;6.93;4.75;;;333.10;2329.60;;;;;;4960292;29;20050;-83
2023/05/10 03:35:36;;;;;;;6.80;4.78;;;333.30;2329.60;;;;;;4953855;29;20480;-81
2023/05/10 03:38:02;;;;;;;9.70;6.82;;;333.20;2329.60;;;;;;4921549;29;20032;-81
2023/05/10 03:40:31;;;;;;;8.32;5.82;;;333.20;2329.60;;;;;;4933105;29;20039;-81
2023/05/10 03:42:57;;;;;;;9.43;6.63;;;333.30;2329.60;;;;;;4955243;29;20035;-80
2023/05/10 03:45:23;;;;;;;9.45;6.28;;;308.00;2304.00;;;;;;4950757;28;20491;-82
2023/05/10 03:47:49;;;;;;;7.60;5.68;;;333.20;2329.60;;;;;;4924058;29;20024;-82
2023/05/10 03:50:14;;;;;;;8.20;5.78;;;333.40;2329.60;;;;;;4929438;29;20038;-82
2023/05/10 03:52:40;;;;;;;8.63;6.03;;;333.50;2329.60;;;;;;4992739;28;20048;-82
2023/05/10 03:55:07;;;;;;;10.93;6.97;;;333.60;2329.60;;;;;;5020303;28;20033;-82
2023/05/10 03:57:34;;;;;;;11.82;6.93;;;333.60;2329.60;;;;;;5020030;28;20465;-81
2023/05/10 04:00:00;;;;;;;10.73;5.78;;;333.70;2329.60;;;;;;5021445;28;20034;-82
2023/05/10 04:02:26;;;;;;;7.40;5.32;;;333.70;2329.60;;;;;;5021904;28;20030;-82
2023/05/10 04:04:51;;;;;;;7.72;5.28;;;333.70;2329.60;;;;;;5022162;28;20453;-82
2023/05/10 04:07:18;;;;;;;8.15;5.25;;;358.40;2329.60;;;;;;5022404;28;20061;-83
2023/05/10 04:09:43;;;;;;;7.65;5.00;;;333.70;2329.60;;;;;;5038916;28;20032;-82
2023/05/10 04:12:09;;;;;;;8.07;6.03;;;358.40;2329.60;;;;;;5039410;28;20120;-83
2023/05/10 04:14:35;;;;;;;8.20;5.72;;;333.60;2329.60;;;;;;5039452;28;20429;-82
2023/05/10 04:17:01;;;;;;;8.43;6.57;;;333.40;2329.60;;;;;;5038375;28;20053;-82
2023/05/10 04:19:31;;;;;;;10.13;6.60;;;333.50;2329.60;;;;;;5022933;28;20022;-82
2023/05/10 04:21:57;;;;;;;11.05;6.57;;;333.50;2329.60;;;;;;5038716;28;20025;-82
2023/05/10 04:24:23;;;;;;;8.32;5.30;;;333.60;2329.60;;;;;;5023027;28;20029;-82
2023/05/10 04:26:49;;;;;;;8.98;5.72;;;333.50;2329.60;;;;;;5018897;28;20032;-82
2023/05/10 04:29:15;;;;;;;8.13;6.32;;;333.60;2329.60;;;;;;5020259;28;20054;-81
2023/05/10 04:31:40;;;;;;;8.52;5.35;;;333.60;2329.60;;;;;;5031159;28;20033;-81
2023/05/10 04:34:06;;;;;;;8.20;6.55;;;333.40;2329.60;;;;;;5023039;28;20040;-82
2023/05/10 04:36:34;;;;;;;7.15;5.53;;;333.30;2329.60;;;;;;5022212;28;20102;-82
2023/05/10 04:39:00;;;;;;;7.53;6.20;;;333.40;2329.60;;;;;;5038869;28;20124;-83
2023/05/10 04:41:26;;;;;;;8.95;7.55;;;333.40;2329.60;;;;;;5039013;28;20064;-83
2023/05/10 04:43:52;;;;;;;13.25;7.15;;;333.60;2329.60;;;;;;5023240;28;20465;-82
2023/05/10 04:46:18;;;;;;;10.52;7.50;;;333.70;2329.60;;;;;;5023096;28;20033;-82
2023/05/10 04:48:44;;;;;;;7.78;5.80;;;333.70;2329.60;;;;;;5040459;28;20457;-82
2023/05/10 04:51:10;;;;;;;6.93;5.18;;;333.70;2329.60;;;;;;5040077;28;20056;-82
2023/05/10 04:53:35;;;;;;;8.77;6.82;;;358.40;2329.60;;;;;;5040224;28;20057;-81
2023/05/10 04:56:01;;;;;;;9.93;6.53;;;358.40;2329.60;;;;;;5034881;28;20026;-81
2023/05/10 04:58:27;;;;;;;10.23;7.03;;;358.40;2329.60;;;;;;5020635;28;20461;-82
2023/05/10 05:00:53;;;;;;;13.07;7.20;;;333.70;2329.60;;;;;;5026317;28;20029;-82
2023/05/10 05:03:19;;;;;;;11.25;6.63;;;358.40;2329.60;;;;;;5023833;28;20112;-82
2023/05/10 05:05:44;;;;;;;9.82;6.00;;;358.50;2329.60;;;;;;5020734;28;20038;-82
2023/05/10 05:08:10;;;;;;;8.50;5.57;;;358.50;2329.60;;;;;;5021186;28;20521;-83
2023/05/10 05:10:36;;;;;;;11.93;6.53;;;358.50;2329.60;;;;;;5024221;28;20053;-84
2023/05/10 05:13:02;;;;;;;7.78;5.93;;;358.50;2329.60;;;;;;5007919;28;20105;-84
2023/05/10 05:15:28;;;;;;;8.50;6.70;;;358.50;2329.60;;;;;;5008670;28;20033;-83
2023/05/10 05:17:53;;;;;;;8.50;6.03;;;358.60;2329.60;;;;;;5010226;28;20036;-83
2023/05/10 05:20:19;;;;;;;7.90;5.25;;;358.60;2329.60;;;;;;5004089;28;20107;-81
2023/05/10 05:22:45;;;;;;;9.07;4.80;;;358.60;2329.60;;;;;;5001157;28;20386;-82
2023/05/10 05:25:11;;;;;;;7.30;4.43;;;358.60;2329.60;;;;;;5000914;28;20068;-83
2023/05/10 05:27:37;;;;;;;11.27;5.10;;;359.00;2329.60;;;;;;5001343;28;20029;-83
2023/05/10 05:30:04;;;;;;;10.55;6.90;;;358.60;2329.60;;;;;;5001082;28;20049;-82
2023/05/10 05:32:30;;;;;;;7.97;5.75;;;358.60;2329.60;;;;;;5002765;28;20080;-83
2023/05/10 05:34:56;;;;;;;7.57;5.28;;;358.60;2329.60;;;;;;5002656;28;20084;-83
2023/05/10 05:37:22;;;;;;;6.97;4.82;;;358.60;2329.60;;;;;;5000432;28;20029;-80
2023/05/10 05:39:48;;;;;;;9.75;6.38;;;358.60;2329.60;;;;;;5001134;28;20041;-81
2023/05/10 05:42:16;;;;;;;9.70;6.88;;;358.70;2329.60;;;;;;5000360;28;20022;-82
2023/05/10 05:44:42;;;;;;;7.40;5.13;;;358.70;2329.60;;;;;;5000915;28;20036;-81
2023/05/10 05:47:08;;;;;;;8.40;6.32;;;358.70;2329.60;;;;;;4999279;28;20030;-82
2023/05/10 05:49:34;;;;;;;11.20;8.05;;;358.70;2329.60;;;;;;5017091;28;20053;-82
2023/05/10 05:52:01;;;;;;;9.35;6.40;;;358.80;2329.60;;;;;;5017048;28;20034;-81
2023/05/10 05:54:27;;;;;;;8.55;6.07;;;358.80;2329.60;;;;;;5000181;28;20026;-80
2023/05/10 05:56:57;;;;;;;14.85;7.22;;;358.80;2329.60;;;;;;5000344;28;20033;-80
2023/05/10 05:59:23;;;;;;;11.40;7.47;;;358.80;2329.60;;;;;;5001291;28;20033;-81
2023/05/10 06:01:49;;;;;;;8.98;6.68;;;358.80;2329.60;;;;;;5000531;28;20022;-82
2023/05/10 06:04:15;;;;;;;8.50;6.15;;;358.90;2329.60;;;;;;5017189;28;20030;-81
2023/05/10 06:06:41;;;;;;;8.90;6.38;;;358.90;2329.60;;;;;;5000570;28;20056;-82
2023/05/10 06:09:06;;;;;;;7.75;6.20;;;358.80;2329.60;;;;;;5021526;28;20052;-82
2023/05/10 06:11:32;;;;;;;10.52;7.47;;;358.90;2329.60;;;;;;5020578;28;20026;-81
2023/05/10 06:13:59;;;;;;;10.82;7.20;;;358.90;2329.60;;;;;;5019464;28;20473;-81
2023/05/10 06:16:25;;;;;;;9.10;6.80;;;358.90;2329.60;;;;;;5018740;28;20052;-81
2023/05/10 06:18:51;;;;;;;9.55;6.35;;;358.90;2329.60;;;;;;5019332;28;20025;-81
2023/05/10 06:21:16;;;;;;;10.70;8.60;;;358.90;2329.60;;;;;;5018799;28;20055;-81
2023/05/10 06:23:42;;;;;;;11.45;9.75;;;359.00;2329.60;;;;;;5019509;28;20030;-81
2023/05/10 06:26:08;;;;;;;14.15;8.70;;;359.00;2329.60;;;;;;5018576;28;20061;-81
2023/05/10 06:28:34;;;;;;;8.35;7.18;;;384.40;2329.60;;;;;;5019755;28;20052;-82
2023/05/10 06:31:00;;;;;;;12.80;8.68;;;359.00;2329.60;;;;;;5018613;28;20057;-81
2023/05/10 06:33:26;;;;;;;15.02;8.73;;;359.00;2329.60;;;;;;5020722;28;20029;-81
2023/05/10 06:35:52;;;;;;;12.82;8.98;;;359.00;2329.60;;;;;;5035104;28;20037;-80
2023/05/10 06:38:17;;;;;;;20.17;11.80;;;359.00;2329.60;;;;;;5034867;28;20385;-81
2023/05/10 06:40:43;;;;;;;21.17;13.20;;;359.00;2329.60;;;;;;5018778;28;20036;-80
2023/05/10 06:43:10;;;;;;;12.63;8.07;;;359.00;2329.60;;;;;;5035196;28;20060;-81
2023/05/10 06:45:36;;;;;;;16.77;9.80;;;359.10;2329.60;;;;;;5035964;28;20483;-81
2023/05/10 06:48:02;;;;;;;15.43;9.77;;;359.10;2329.60;;;;;;5036369;28;20029;-82
2023/05/10 06:50:28;;;;;;;12.75;8.55;;;359.10;2329.60;;;;;;5019425;28;20049;-82
2023/05/10 06:52:55;;;;;;;13.73;8.40;;;359.10;2329.60;;;;;;5019933;28;20041;-82
2023/05/10 06:55:21;;;;;;;9.23;6.43;;;359.20;2329.60;;;;;;5020037;28;20384;-82
2023/05/10 06:57:47;;;;;;;8.25;6.53;;;359.10;2329.60;;;;;;5019287;28;20026;-82
2023/05/10 07:00:14;;;;;;;7.55;6.30;;;359.10;2329.60;;;;;;5036215;28;20029;-81
2023/05/10 07:02:40;;;;;;;10.18;6.72;;;359.10;2329.60;;;;;;5035423;28;20021;-81
2023/05/10 07:05:06;;;;;;;11.25;8.73;;;359.10;2329.60;;;;;;5036229;28;20044;-82
2023/05/10 07:07:32;;;;;;;12.48;8.38;;;359.10;2329.60;;;;;;5035681;28;20057;-81
2023/05/10 07:09:57;;;;;;;11.60;9.35;;;359.20;2329.60;;;;;;5020007;28;20048;-81
2023/05/10 07:12:24;;;;;;;15.80;10.50;;;359.20;2329.60;;;;;;5037010;28;20564;-81
2023/05/10 07:14:50;;;;;;;15.68;10.52;;;359.30;2329.60;;;;;;5020819;28;20053;-81
2023/05/10 07:17:16;;;;;;;12.57;8.00;;;384.00;2329.60;;;;;;5019496;28;20359;-81
2023/05/10 07:19:41;;;;;;;8.73;5.60;;;384.10;2329.60;;;;;;5022266;28;20029;-82
2023/05/10 07:22:07;;;;;;;9.52;7.75;;;384.10;2329.60;;;;;;5023985;28;20087;-83
2023/05/10 07:24:33;;;;;;;11.52;8.90;;;384.10;2329.60;;;;;;5024454;28;20392;-82
2023/05/10 07:26:59;;;;;;;14.48;9.82;;;384.10;2329.60;;;;;;5023711;28;20018;-82
2023/05/10 07:29:25;;;;;;;11.65;8.00;;;384.10;2329.60;;;;;;5025038;28;20529;-84
2023/05/10 07:31:51;;;;;;;9.07;5.70;;;384.10;2329.60;;;;;;5021629;28;20034;-83
2023/05/10 07:34:17;;;;;;;10.75;6.13;;;359.00;2329.60;;;;;;5021395;28;20041;-80
2023/05/10 07:36:43;;;;;;;9.55;5.95;;;384.00;2329.60;;;;;;5023240;28;20022;-82
2023/05/10 07:39:09;;;;;;;8.63;6.05;;;384.00;2329.60;;;;;;5024579;28;20025;-82
2023/05/10 07:41:36;;;;;;;13.65;7.95;;;384.10;2329.60;;;;;;5023464;28;20384;-83
2023/05/10 07:44:02;;;;;;;13.70;7.55;;;384.00;2329.60;;;;;;5023069;28;20033;-84
2023/05/10 07:46:28;;;;;;;10.13;6.95;;;384.10;2329.60;;;;;;5022552;28;20025;-83
2023/05/10 07:48:54;;;;;;;15.00;11.05;;;384.10;2329.60;;;;;;5024647;28;20043;-81
2023/05/10 07:51:19;;;;;;;17.35;8.77;;;384.10;2329.60;;;;;;5040031;28;20074;-82
2023/05/10 07:53:45;;;;;;;9.88;6.65;;;384.00;2329.60;;;;;;5039072;28;20033;-81
2023/05/10 07:56:29;;;;;;;13.02;8.35;;;384.00;2329.60;;;;;;5025297;28;20033;-82
2023/05/10 07:58:56;;;;;;;13.02;9.35;;;384.00;2329.60;;;;;;5048260;28;20028;-82
2023/05/10 08:01:22;;;;;;;16.67;11.63;;;384.10;2329.60;;;;;;5022982;28;20483;-82
2023/05/10 08:03:48;;;;;;;18.27;11.25;;;384.10;2329.60;;;;;;5040551;28;20119;-81
2023/05/10 08:06:16;;;;;;;13.80;9.40;;;384.40;2329.60;;;;;;5039678;28;20029;-81
2023/05/10 08:08:42;;;;;;;14.30;8.55;;;384.20;2329.60;;;;;;5024315;28;20758;-85
2023/05/10 08:11:08;;;;;;;17.17;11.85;;;384.20;2329.60;;;;;;5029233;28;20033;-80
2023/05/10 08:13:34;;;;;;;15.85;10.10;;;384.20;2329.60;;;;;;5027778;28;20031;-81
2023/05/10 08:16:00;;;;;;;14.18;9.23;;;384.00;2329.60;;;;;;5026075;28;20097;-81
2023/05/10 08:18:26;;;;;;;14.73;10.38;;;384.30;2329.60;;;;;;5024560;28;20112;-83
2023/05/10 08:20:52;;;;;;;18.20;11.05;;;384.30;2329.60;;;;;;5040528;28;20377;-82
2023/05/10 08:23:17;;;;;;;23.25;17.02;;;384.40;2329.60;;;;;;5041464;28;20476;-82
2023/05/10 08:25:43;;;;;;;27.05;16.35;;;384.30;2329.60;;;;;;5024849;28;20021;-83
2023/05/10 08:28:09;;;;;;;20.23;14.65;;;384.40;2329.60;;;;;;5024319;28;20068;-82
2023/05/10 08:30:35;;;;;;;22.45;14.80;;;384.40;2329.60;;;;;;5022602;28;20053;-81
2023/05/10 08:33:01;;;;;;;16.70;12.65;;;384.40;2329.60;;;;;;5024337;28;20041;-83
2023/05/10 08:35:26;;;;;;;16.45;11.45;;;384.40;2329.60;;;;;;5022993;28;20032;-81
2023/05/10 08:37:52;;;;;;;17.48;9.15;;;384.40;2329.60;;;;;;5024222;28;20060;-85
2023/05/10 08:40:22;;;;;;;17.02;10.27;;;384.40;2329.60;;;;;;5041052;28;20025;-85
2023/05/10 08:43:07;;;;;;;20.02;13.02;;;384.40;2329.60;;;;;;5005758;28;20037;-84
2023/05/10 08:45:37;;;;;;;19.65;13.82;;;384.50;2329.60;;;;;;5021726;28;20521;-84
2023/05/10 08:48:06;;;;;;;27.35;16.58;;;384.50;2329.60;;;;;;5025209;28;20028;-83
2023/05/10 08:50:35;;;;;;;18.10;12.35;;;384.50;2329.60;;;;;;5025138;28;20072;-85
2023/05/10 08:53:04;;;;;;;14.73;10.25;;;384.60;2329.60;;;;;;5023765;28;20037;-85
2023/05/10 08:55:32;;;;;;;17.35;10.75;;;384.70;2329.60;;;;;;5023018;28;20025;-84
2023/05/10 08:57:59;;;;;;;12.45;9.20;;;384.70;2329.60;;;;;;5023597;28;20075;-84
2023/05/10 09:00:25;;;;;;;11.15;8.73;;;384.80;2329.60;;;;;;5019904;28;20112;-81
2023/05/10 09:02:52;;;;;;;14.88;8.50;;;384.80;2329.60;;;;;;5018739;28;20104;-83
2023/05/10 09:05:18;;;;;;;20.25;14.63;;;384.80;2329.60;;;;;;5020223;28;20037;-81
2023/05/10 09:07:44;;;;;;;22.33;12.55;;;384.90;2329.60;;;;;;5022307;28;20050;-81
2023/05/10 09:10:11;;;;;;;21.75;13.15;;;384.90;2329.60;;;;;;5021589;28;20465;-81
2023/05/10 09:12:37;;;;;;;15.38;9.60;;;409.60;2355.20;;;;;;5021982;28;20029;-80
2023/05/10 09:15:05;;;;;;;17.55;11.15;;;409.60;2355.20;;;;;;5038159;28;20030;-81
2023/05/10 09:17:31;;;;;;;17.80;12.80;;;409.60;2355.20;;;;;;5022400;28;20054;-81
2023/05/10 09:20:00;;;;;;;15.20;9.23;;;409.60;2355.20;;;;;;5019177;28;20454;-80
2023/05/10 09:22:27;;;;;;;11.23;8.25;;;409.70;2355.20;;;;;;5034455;28;20028;-81
2023/05/10 09:25:14;;;;;;;16.75;12.98;;;409.70;2355.20;;;;;;5022708;28;20022;-79
2023/05/10 09:27:44;;;;;;;15.80;13.07;;;409.90;2355.20;;;;;;5020920;28;20032;-80
2023/05/10 09:30:15;;;;;;;15.15;9.93;;;410.00;2355.20;;;;;;5038792;28;20029;-80
2023/05/10 09:32:43;;;;;;;35.97;27.17;;;409.90;2355.20;;;;;;5018892;28;20034;-83
2023/05/10 09:35:17;;;;;;;43.33;32.42;;;410.00;2355.20;;;;;;5021244;28;20429;-85
2023/05/10 09:37:48;;;;;;;49.38;38.95;;;410.00;2355.20;;;;;;5007847;28;20042;-82
2023/05/10 09:40:20;;;;;;;28.83;24.13;;;410.00;2355.20;;;;;;5003189;28;20044;-84
2023/05/10 09:42:57;;;;;;;19.15;15.52;;;410.00;2355.20;;;;;;5018960;28;20022;-82
2023/05/10 09:45:26;;;;;;;14.95;11.43;;;410.20;2355.20;;;;;;5050301;28;20021;-83
2023/05/10 09:47:52;;;;;;;20.88;14.07;;;410.20;2355.20;;;;;;5044816;28;20029;-85
2023/05/10 09:50:20;;;;;;;20.13;11.68;;;410.20;2355.20;;;;;;5012867;28;20041;-83
2023/05/10 09:52:51;;;;;;;18.40;13.15;;;410.20;2355.20;;;;;;5027073;28;20053;-84
2023/05/10 09:55:19;;;;;;;12.13;8.68;;;410.20;2355.20;;;;;;5011591;28;20034;-85
2023/05/10 09:57:49;;;;;;;18.52;11.75;;;410.30;2355.20;;;;;;5001567;28;20160;-82
2023/05/10 10:00:19;;;;;;;20.35;13.02;;;410.30;2355.20;;;;;;5039335;28;20028;-86
2023/05/10 10:02:47;;;;;;;12.57;10.18;;;410.20;2355.20;;;;;;5021582;28;20030;-81
2023/05/10 10:05:14;;;;;;;12.50;9.55;;;410.30;2355.20;;;;;;5002428;28;20399;-85
2023/05/10 10:07:40;;;;;;;9.90;7.45;;;410.30;2355.20;;;;;;5026057;28;20054;-83
2023/05/10 10:10:11;;;;;;;13.63;8.35;;;410.30;2355.20;;;;;;5007435;28;20390;-83
2023/05/10 10:12:37;;;;;;;9.77;7.45;;;410.40;2355.20;;;;;;5037189;28;20037;-83
2023/05/10 10:15:04;;;;;;;15.02;8.88;;;410.20;2355.20;;;;;;5002629;28;20458;-86
2023/05/10 10:17:35;;;;;;;14.32;9.50;;;410.40;2355.20;;;;;;4997193;28;20362;-84
2023/05/10 10:20:03;;;;;;;14.55;8.88;;;410.40;2355.20;;;;;;5008182;28;20033;-83
2023/05/10 10:22:29;;;;;;;12.73;10.10;;;410.30;2355.20;;;;;;5003469;28;20037;-83
2023/05/10 10:24:55;;;;;;;11.88;9.13;;;410.50;2355.20;;;;;;4997464;28;20041;-81
2023/05/10 10:27:46;;;;;;;12.32;8.88;;;410.50;2355.20;;;;;;4982291;28;20034;-84
2023/05/10 10:30:43;;;;;;;11.60;8.25;;;435.20;2355.20;;;;;;5014153;28;20046;-82
2023/05/10 10:33:57;;;;;;;13.52;9.10;;;410.50;2355.20;;;;;;5016360;28;20034;-84
2023/05/10 10:36:23;;;;;;;12.63;9.10;;;435.20;2355.20;;;;;;4983550;28;20481;-85
2023/05/10 10:38:48;;;;;;;11.23;8.23;;;435.30;2355.20;;;;;;5016336;28;20030;-81
2023/05/10 10:41:51;;;;;;;10.32;7.80;;;435.20;2355.20;;;;;;5030266;28;20026;-84
2023/05/10 10:44:25;;;;;;;10.03;6.73;;;435.20;2355.20;;;;;;4973187;28;21392;-83
2023/05/10 10:47:14;;;;;;;14.15;8.60;;;410.50;2355.20;;;;;;4964840;28;20297;-85
2023/05/10 10:49:40;;;;;;;10.77;7.43;;;435.20;2355.20;;;;;;4960686;28;20034;-84
2023/05/10 10:52:32;;;;;;;9.85;7.15;;;410.50;2355.20;;;;;;4956811;29;20043;-84
2023/05/10 10:55:11;;;;;;;10.52;8.15;;;410.50;2355.20;;;;;;4961345;28;20061;-82
2023/05/10 10:58:02;;;;;;;10.90;7.30;;;435.20;2355.20;;;;;;4976442;28;20143;-82
2023/05/10 11:00:30;;;;;;;10.85;8.93;;;435.20;2355.20;;;;;;4971601;28;20519;-82
2023/05/10 11:03:08;;;;;;;14.13;7.93;;;435.20;2355.20;;;;;;4968183;28;20031;-84
2023/05/10 11:05:37;;;;;;;11.77;7.45;;;435.30;2355.20;;;;;;4978365;28;20117;-84
2023/05/10 11:08:26;;;;;;;13.18;8.75;;;435.30;2355.20;;;;;;4976117;28;20046;-82
2023/05/10 11:11:06;;;;;;;16.67;12.57;;;435.40;2355.20;;;;;;4978960;28;20122;-81
2023/05/10 11:13:38;;;;;;;18.42;9.48;;;435.40;2355.20;;;;;;4961827;28;20066;-84
2023/05/10 11:16:17;;;;;;;16.27;11.03;;;435.50;2355.20;;;;;;4962247;28;20031;-82
2023/05/10 11:18:56;;;;;;;13.48;9.10;;;435.60;2355.20;;;;;;4964347;28;20288;-81
2023/05/10 11:21:23;;;;;;;9.40;6.95;;;435.60;2355.20;;;;;;5002035;28;20026;-79
2023/05/10 11:23:57;;;;;;;11.25;6.45;;;435.50;2355.20;;;;;;5000140;28;20033;-81
2023/05/10 11:26:32;;;;;;;11.65;7.60;;;435.50;2355.20;;;;;;5019649;28;20681;-83
2023/05/10 11:29:01;;;;;;;12.02;8.60;;;435.50;2355.20;;;;;;5001095;28;20149;-82
2023/05/10 11:31:28;;;;;;;14.43;6.75;;;435.60;2355.20;;;;;;4998703;28;20030;-81
2023/05/10 11:33:56;;;;;;;9.57;6.55;;;435.50;2355.20;;;;;;5000540;28;20033;-82
2023/05/10 11:36:28;;;;;;;12.70;9.73;;;435.50;2355.20;;;;;;5000456;28;20022;-84
2023/05/10 11:38:55;;;;;;;9.75;8.10;;;435.50;2355.20;;;;;;5001040;28;20461;-81
2023/05/10 11:41:21;;;;;;;13.57;8.32;;;435.50;2355.20;;;;;;5001526;28;20061;-81
2023/05/10 11:43:50;;;;;;;16.30;12.18;;;435.50;2355.20;;;;;;4982896;28;20458;-82
2023/05/10 11:46:19;;;;;;;14.38;10.60;;;435.60;2355.20;;;;;;4997245;28;20030;-81
2023/05/10 11:48:45;;;;;;;7.90;6.68;;;435.60;2355.20;;;;;;4998440;28;20026;-83
2023/05/10 11:51:11;;;;;;;12.30;10.30;;;435.70;2355.20;;;;;;4998396;28;20040;-82
2023/05/10 11:53:37;;;;;;;14.80;10.27;;;435.80;2355.20;;;;;;4997836;28;20031;-83
2023/05/10 11:56:10;;;;;;;14.23;9.75;;;435.90;2355.20;;;;;;5017510;28;20049;-81
2023/05/10 11:58:37;;;;;;;11.90;7.95;;;435.90;2355.20;;;;;;5001261;28;20109;-81
2023/05/10 12:01:04;;;;;;;13.82;8.65;;;435.90;2355.20;;;;;;5000883;28;20030;-83
2023/05/10 12:03:31;;;;;;;11.05;7.57;;;435.90;2355.20;;;;;;5018198;28;20026;-81
2023/05/10 12:05:58;;;;;;;10.05;6.80;;;435.90;2355.20;;;;;;5016845;28;20026;-83
2023/05/10 12:08:25;;;;;;;9.38;7.13;;;435.90;2355.20;;;;;;5018085;28;20057;-83
2023/05/10 12:10:53;;;;;;;10.55;7.70;;;435.90;2355.20;;;;;;5025147;28;20477;-83
2023/05/10 12:13:20;;;;;;;10.48;7.85;;;435.90;2355.20;;;;;;5023774;28;20029;-81
2023/05/10 12:15:46;;;;;;;13.90;8.57;;;435.90;2355.20;;;;;;5024004;28;20025;-81
2023/05/10 12:18:13;;;;;;;9.30;6.82;;;435.80;2355.20;;;;;;5024575;28;20072;-82